createdAt,value
2017-06-15T00:00:33.505Z,1019.82
2017-06-15T00:01:55.676Z,1019.88
2017-06-15T00:03:17.185Z,1019.86
2017-06-15T00:04:39.666Z,1019.84
2017-06-15T00:06:01.493Z,1019.77
2017-06-15T00:07:23.330Z,1019.78
2017-06-15T00:08:45.484Z,1019.81
2017-06-15T00:10:07.776Z,1019.81
2017-06-15T00:11:29.707Z,1019.81
2017-06-15T00:12:51.871Z,1019.84
2017-06-15T00:14:14.401Z,1019.82
2017-06-15T00:15:35.943Z,1019.78
2017-06-15T00:16:58.074Z,1019.75
2017-06-15T00:18:19.903Z,1019.72
2017-06-15T00:19:41.743Z,1019.74
2017-06-15T00:21:03.877Z,1019.74
2017-06-15T00:22:25.756Z,1019.74
2017-06-15T00:23:46.955Z,1019.73
2017-06-15T00:25:08.136Z,1019.75
2017-06-15T00:26:30.284Z,1019.76
2017-06-15T00:27:52.121Z,1019.75
2017-06-15T00:29:14.043Z,1019.75
2017-06-15T00:30:36.509Z,1019.73
2017-06-15T00:31:58.318Z,1019.71
2017-06-15T00:33:20.441Z,1019.69
2017-06-15T00:34:42.282Z,1019.65
2017-06-15T00:36:03.812Z,1019.62
2017-06-15T00:37:25.621Z,1019.6
2017-06-15T00:38:47.457Z,1019.65
2017-06-15T00:40:10.025Z,1019.58
2017-06-15T00:41:31.844Z,1019.56
2017-06-15T00:42:53.355Z,1019.51
2017-06-15T00:44:14.542Z,1019.57
2017-06-15T00:45:36.363Z,1019.55
2017-06-15T00:46:58.192Z,1019.53
2017-06-15T00:48:20.730Z,1019.53
2017-06-15T00:49:42.244Z,1019.55
2017-06-15T00:51:04.072Z,1019.51
2017-06-15T00:52:25.942Z,1019.54
2017-06-15T00:53:47.840Z,1019.49
2017-06-15T00:55:09.644Z,1019.48
2017-06-15T00:56:31.799Z,1019.45
2017-06-15T00:57:53.682Z,1019.46
2017-06-15T00:59:15.503Z,1019.49
2017-06-15T01:00:37.334Z,1019.5
2017-06-15T01:01:59.531Z,1019.48
2017-06-15T01:03:21.993Z,1019.51
2017-06-15T01:04:44.022Z,1019.49
2017-06-15T01:06:05.850Z,1019.51
2017-06-15T01:07:27.742Z,1019.47
2017-06-15T01:08:48.924Z,1019.48
2017-06-15T01:10:10.540Z,1019.45
2017-06-15T01:11:33.033Z,1019.48
2017-06-15T01:12:55.172Z,1019.49
2017-06-15T01:14:16.681Z,1019.48
2017-06-15T01:15:38.860Z,1019.47
2017-06-15T01:17:00.372Z,1019.41
2017-06-15T01:18:22.252Z,1019.31
2017-06-15T01:19:43.445Z,1019.32
2017-06-15T01:21:05.282Z,1019.31
2017-06-15T01:22:26.803Z,1019.3
2017-06-15T01:23:48.992Z,1019.28
2017-06-15T01:25:11.282Z,1019.25
2017-06-15T01:26:32.815Z,1019.23
2017-06-15T01:27:54.952Z,1019.21
2017-06-15T01:29:16.782Z,1019.15
2017-06-15T01:30:38.592Z,1019.16
2017-06-15T01:32:00.478Z,1019.17
2017-06-15T01:33:22.196Z,1019.14
2017-06-15T01:34:44.332Z,1019.12
2017-06-15T01:36:05.866Z,1019.14
2017-06-15T01:37:27.996Z,1019.14
2017-06-15T01:38:50.121Z,1019.11
2017-06-15T01:40:12.280Z,1019.09
2017-06-15T01:41:34.181Z,1019.1
2017-06-15T01:42:56.083Z,1019.13
2017-06-15T01:44:18.531Z,1019.08
2017-06-15T01:45:40.992Z,1019.11
2017-06-15T01:47:03.172Z,1019.1
2017-06-15T01:48:25.642Z,1019.08
2017-06-15T01:49:48.192Z,1019.06
2017-06-15T01:51:10.383Z,1019.05
2017-06-15T01:52:32.585Z,1019.08
2017-06-15T01:53:53.455Z,1019.05
2017-06-15T01:55:15.602Z,1019.04
2017-06-15T01:56:37.920Z,1018.99
2017-06-15T01:57:59.552Z,1018.98
2017-06-15T01:59:21.082Z,1018.99
2017-06-15T02:00:43.219Z,1018.96
2017-06-15T02:02:05.351Z,1018.99
2017-06-15T02:03:27.523Z,1018.96
2017-06-15T02:04:49.671Z,1018.95
2017-06-15T02:06:11.331Z,1018.95
2017-06-15T02:07:33.157Z,1018.9
2017-06-15T02:08:54.970Z,1018.89
2017-06-15T02:10:16.471Z,1018.93
2017-06-15T02:11:38.131Z,1018.94
2017-06-15T02:13:00.286Z,1018.89
2017-06-15T02:14:22.111Z,1018.88
2017-06-15T02:15:43.680Z,1018.89
2017-06-15T02:17:06.181Z,1018.86
2017-06-15T02:18:28.028Z,1018.9
2017-06-15T02:19:50.303Z,1018.86
2017-06-15T02:21:12.756Z,1018.87
2017-06-15T02:22:34.622Z,1018.82
2017-06-15T02:23:56.452Z,1018.83
2017-06-15T02:25:18.942Z,1018.85
2017-06-15T02:26:41.419Z,1018.76
2017-06-15T02:28:03.422Z,1018.79
2017-06-15T02:29:24.934Z,1018.74
2017-06-15T02:30:47.431Z,1018.73
2017-06-15T02:32:09.882Z,1018.8
2017-06-15T02:33:31.760Z,1018.79
2017-06-15T02:34:53.903Z,1018.8
2017-06-15T02:36:16.062Z,1018.73
2017-06-15T02:37:38.198Z,1018.76
2017-06-15T02:39:00.342Z,1018.76
2017-06-15T02:40:22.513Z,1018.75
2017-06-15T02:41:44.346Z,1018.69
2017-06-15T02:43:06.509Z,1018.7
2017-06-15T02:44:28.669Z,1018.7
2017-06-15T02:45:50.822Z,1018.7
2017-06-15T02:47:13.001Z,1018.68
2017-06-15T02:48:34.262Z,1018.66
2017-06-15T02:49:55.792Z,1018.66
2017-06-15T02:51:18.015Z,1018.67
2017-06-15T02:52:39.831Z,1018.71
2017-06-15T02:54:01.081Z,1018.7
2017-06-15T02:55:23.434Z,1018.71
2017-06-15T02:56:45.283Z,1018.69
2017-06-15T02:58:07.532Z,1018.68
2017-06-15T02:59:30.001Z,1018.71
2017-06-15T03:00:52.192Z,1018.68
2017-06-15T03:02:14.431Z,1018.69
2017-06-15T03:03:36.629Z,1018.66
2017-06-15T03:04:58.791Z,1018.6
2017-06-15T03:06:21.286Z,1018.61
2017-06-15T03:07:43.422Z,1018.62
2017-06-15T03:09:04.941Z,1018.62
2017-06-15T03:10:27.082Z,1018.59
2017-06-15T03:11:49.251Z,1018.61
2017-06-15T03:13:10.960Z,1018.56
2017-06-15T03:14:32.784Z,1018.55
2017-06-15T03:15:54.647Z,1018.56
2017-06-15T03:17:16.301Z,1018.62
2017-06-15T03:18:38.539Z,1018.64
2017-06-15T03:20:00.362Z,1018.69
2017-06-15T03:21:22.403Z,1018.65
2017-06-15T03:22:44.541Z,1018.62
2017-06-15T03:24:06.103Z,1018.64
2017-06-15T03:25:28.307Z,1018.62
2017-06-15T03:26:50.132Z,1018.6
2017-06-15T03:28:12.592Z,1018.6
2017-06-15T03:29:35.052Z,1018.57
2017-06-15T03:30:57.182Z,1018.58
2017-06-15T03:32:19.078Z,1018.58
2017-06-15T03:33:40.571Z,1018.6
2017-06-15T03:35:01.764Z,1018.57
2017-06-15T03:36:23.261Z,1018.62
2017-06-15T03:37:45.523Z,1018.6
2017-06-15T03:39:07.672Z,1018.62
2017-06-15T03:40:29.490Z,1018.62
2017-06-15T03:41:51.310Z,1018.62
2017-06-15T03:43:13.769Z,1018.6
2017-06-15T03:44:36.294Z,1018.62
2017-06-15T03:45:58.732Z,1018.59
2017-06-15T03:47:20.542Z,1018.66
2017-06-15T03:48:43.003Z,1018.62
2017-06-15T03:50:05.161Z,1018.59
2017-06-15T03:51:27.621Z,1018.58
2017-06-15T03:52:49.784Z,1018.58
2017-06-15T03:54:12.260Z,1018.62
2017-06-15T03:55:34.101Z,1018.65
2017-06-15T03:56:55.932Z,1018.65
2017-06-15T03:58:17.442Z,1018.67
2017-06-15T03:59:39.580Z,1018.7
2017-06-15T04:01:02.181Z,1018.67
2017-06-15T04:02:24.113Z,1018.66
2017-06-15T04:03:45.944Z,1018.68
2017-06-15T04:05:08.433Z,1018.67
2017-06-15T04:06:30.881Z,1018.72
2017-06-15T04:07:52.703Z,1018.74
2017-06-15T04:09:14.854Z,1018.73
2017-06-15T04:10:36.993Z,1018.68
2017-06-15T04:11:58.812Z,1018.7
2017-06-15T04:13:20.990Z,1018.71
2017-06-15T04:14:42.933Z,1018.72
2017-06-15T04:16:04.458Z,1018.69
2017-06-15T04:17:27.279Z,1018.66
2017-06-15T04:18:48.951Z,1018.67
2017-06-15T04:20:11.443Z,1018.62
2017-06-15T04:21:33.022Z,1018.63
2017-06-15T04:22:54.883Z,1018.63
2017-06-15T04:24:17.033Z,1018.55
2017-06-15T04:25:39.222Z,1018.57
2017-06-15T04:27:01.073Z,1018.59
2017-06-15T04:28:23.358Z,1018.58
2017-06-15T04:29:44.862Z,1018.56
2017-06-15T04:31:07.016Z,1018.54
2017-06-15T04:32:29.468Z,1018.56
2017-06-15T04:33:51.614Z,1018.56
2017-06-15T04:35:13.848Z,1018.53
2017-06-15T04:36:35.673Z,1018.47
2017-06-15T04:37:57.828Z,1018.53
2017-06-15T04:39:19.712Z,1018.54
2017-06-15T04:40:40.952Z,1018.53
2017-06-15T04:42:03.091Z,1018.55
2017-06-15T04:43:24.923Z,1018.54
2017-06-15T04:44:46.744Z,1018.49
2017-06-15T04:46:08.935Z,1018.5
2017-06-15T04:47:31.092Z,1018.48
2017-06-15T04:48:53.250Z,1018.47
2017-06-15T04:50:15.395Z,1018.48
2017-06-15T04:51:37.861Z,1018.55
2017-06-15T04:53:00.322Z,1018.59
2017-06-15T04:54:22.174Z,1018.58
2017-06-15T04:55:44.427Z,1018.58
2017-06-15T04:57:06.273Z,1018.58
2017-06-15T04:58:28.095Z,1018.59
2017-06-15T04:59:50.713Z,1018.63
2017-06-15T05:01:13.076Z,1018.59
2017-06-15T05:02:35.329Z,1018.61
2017-06-15T05:03:57.218Z,1018.58
2017-06-15T05:05:19.431Z,1018.6
2017-06-15T05:06:41.577Z,1018.6
2017-06-15T05:08:03.410Z,1018.59
2017-06-15T05:09:25.236Z,1018.61
2017-06-15T05:10:47.380Z,1018.59
2017-06-15T05:12:09.902Z,1018.53
2017-06-15T05:13:31.761Z,1018.59
2017-06-15T05:14:54.334Z,1018.61
2017-06-15T05:16:16.514Z,1018.63
2017-06-15T05:17:38.038Z,1018.63
2017-06-15T05:18:59.886Z,1018.61
2017-06-15T05:20:22.363Z,1018.64
2017-06-15T05:21:44.603Z,1018.68
2017-06-15T05:23:06.564Z,1018.69
2017-06-15T05:24:28.731Z,1018.68
2017-06-15T05:25:51.214Z,1018.64
2017-06-15T05:27:13.369Z,1018.67
2017-06-15T05:28:35.535Z,1018.61
2017-06-15T05:29:57.809Z,1018.62
2017-06-15T05:31:19.672Z,1018.66
2017-06-15T05:32:41.843Z,1018.66
2017-06-15T05:34:04.029Z,1018.62
2017-06-15T05:35:26.501Z,1018.6
2017-06-15T05:36:48.392Z,1018.58
2017-06-15T05:38:10.879Z,1018.61
2017-06-15T05:39:33.147Z,1018.53
2017-06-15T05:40:54.673Z,1018.56
2017-06-15T05:42:16.524Z,1018.56
2017-06-15T05:43:38.374Z,1018.57
2017-06-15T05:45:00.633Z,1018.53
2017-06-15T05:46:22.902Z,1018.56
2017-06-15T05:47:45.426Z,1018.56
2017-06-15T05:49:07.592Z,1018.48
2017-06-15T05:50:29.222Z,1018.56
2017-06-15T05:51:51.385Z,1018.56
2017-06-15T05:53:12.921Z,1018.56
2017-06-15T05:54:35.082Z,1018.59
2017-06-15T05:55:57.262Z,1018.57
2017-06-15T05:57:19.253Z,1018.59
2017-06-15T05:58:41.172Z,1018.57
2017-06-15T06:00:03.382Z,1018.55
2017-06-15T06:01:25.023Z,1018.49
2017-06-15T06:02:47.504Z,1018.52
2017-06-15T06:04:09.661Z,1018.58
2017-06-15T06:05:32.156Z,1018.56
2017-06-15T06:06:54.313Z,1018.56
2017-06-15T06:08:16.482Z,1018.53
2017-06-15T06:09:38.402Z,1018.61
2017-06-15T06:11:00.692Z,1018.56
2017-06-15T06:12:22.854Z,1018.54
2017-06-15T06:13:44.842Z,1018.54
2017-06-15T06:15:07.101Z,1018.54
2017-06-15T06:16:28.631Z,1018.58
2017-06-15T06:17:50.571Z,1018.65
2017-06-15T06:19:12.436Z,1018.59
2017-06-15T06:20:34.692Z,1018.64
2017-06-15T06:21:56.842Z,1018.61
2017-06-15T06:23:18.992Z,1018.61
2017-06-15T06:24:41.489Z,1018.6
2017-06-15T06:26:03.650Z,1018.59
2017-06-15T06:27:25.502Z,1018.57
2017-06-15T06:28:47.671Z,1018.57
2017-06-15T06:30:09.529Z,1018.63
2017-06-15T06:31:31.378Z,1018.6
2017-06-15T06:32:53.234Z,1018.59
2017-06-15T06:34:14.902Z,1018.61
2017-06-15T06:35:36.925Z,1018.56
2017-06-15T06:36:59.222Z,1018.54
2017-06-15T06:38:21.058Z,1018.57
2017-06-15T06:39:42.917Z,1018.56
2017-06-15T06:41:04.472Z,1018.59
2017-06-15T06:42:26.340Z,1018.57
2017-06-15T06:43:48.551Z,1018.61
2017-06-15T06:45:11.023Z,1018.6
2017-06-15T06:46:33.295Z,1018.54
2017-06-15T06:47:55.201Z,1018.55
2017-06-15T06:49:17.159Z,1018.6
2017-06-15T06:50:38.762Z,1018.59
2017-06-15T06:52:00.906Z,1018.56
2017-06-15T06:53:23.074Z,1018.57
2017-06-15T06:54:45.553Z,1018.63
2017-06-15T06:56:07.492Z,1018.67
2017-06-15T06:57:29.352Z,1018.6
2017-06-15T06:58:51.836Z,1018.58
2017-06-15T07:00:14.351Z,1018.56
2017-06-15T07:01:36.517Z,1018.55
2017-06-15T07:02:59.008Z,1018.61
2017-06-15T07:04:21.213Z,1018.62
2017-06-15T07:05:43.484Z,1018.65
2017-06-15T07:07:05.039Z,1018.54
2017-06-15T07:08:26.884Z,1018.53
2017-06-15T07:09:49.216Z,1018.55
2017-06-15T07:11:10.832Z,1018.52
2017-06-15T07:12:32.738Z,1018.5
2017-06-15T07:13:53.949Z,1018.5
2017-06-15T07:15:15.889Z,1018.5
2017-06-15T07:16:38.049Z,1018.47
2017-06-15T07:18:00.522Z,1018.49
2017-06-15T07:19:21.754Z,1018.51
2017-06-15T07:20:43.953Z,1018.49
2017-06-15T07:22:06.451Z,1018.48
2017-06-15T07:23:28.387Z,1018.4
2017-06-15T07:24:50.264Z,1018.38
2017-06-15T07:26:12.770Z,1018.39
2017-06-15T07:27:34.312Z,1018.35
2017-06-15T07:28:55.861Z,1018.33
2017-06-15T07:30:18.033Z,1018.4
2017-06-15T07:31:39.671Z,1018.37
2017-06-15T07:33:01.521Z,1018.34
2017-06-15T07:34:23.374Z,1018.27
2017-06-15T07:35:45.561Z,1018.29
2017-06-15T07:37:07.142Z,1018.28
2017-06-15T07:38:28.982Z,1018.28
2017-06-15T07:39:51.116Z,1018.24
2017-06-15T07:41:13.401Z,1018.18
2017-06-15T07:42:35.560Z,1018.19
2017-06-15T07:43:57.757Z,1018.21
2017-06-15T07:45:19.712Z,1018.19
2017-06-15T07:46:41.863Z,1018.24
2017-06-15T07:48:03.740Z,1018.14
2017-06-15T07:49:26.231Z,1018.07
2017-06-15T07:50:48.441Z,1018.1
2017-06-15T07:52:10.321Z,1018.16
2017-06-15T07:53:32.504Z,1018.21
2017-06-15T07:54:54.703Z,1018.16
2017-06-15T07:56:17.239Z,1018.12
2017-06-15T07:57:39.082Z,1018.12
2017-06-15T07:59:00.990Z,1017.98
2017-06-15T08:00:23.478Z,1017.9
2017-06-15T08:01:45.318Z,1017.92
2017-06-15T08:03:07.598Z,1017.88
2017-06-15T08:04:30.072Z,1018
2017-06-15T08:05:52.031Z,1018.03
2017-06-15T08:07:14.190Z,1017.9
2017-06-15T08:08:36.331Z,1017.86
2017-06-15T08:09:58.492Z,1017.76
2017-06-15T08:11:20.962Z,1017.76
2017-06-15T08:12:43.122Z,1017.72
2017-06-15T08:14:04.336Z,1017.69
2017-06-15T08:15:26.193Z,1017.62
2017-06-15T08:16:48.658Z,1017.56
2017-06-15T08:18:10.935Z,1017.51
2017-06-15T08:19:33.211Z,1017.39
2017-06-15T08:20:55.484Z,1017.39
2017-06-15T08:22:17.061Z,1017.36
2017-06-15T08:23:39.031Z,1017.29
2017-06-15T08:25:01.491Z,1017.28
2017-06-15T08:26:23.960Z,1017.31
2017-06-15T08:27:45.482Z,1017.28
2017-06-15T08:29:07.951Z,1017.27
2017-06-15T08:30:29.804Z,1017.28
2017-06-15T08:31:51.831Z,1017.23
2017-06-15T08:33:13.652Z,1017.24
2017-06-15T08:34:35.552Z,1017.21
2017-06-15T08:35:57.390Z,1017.2
2017-06-15T08:37:18.994Z,1017.19
2017-06-15T08:38:40.510Z,1017.23
2017-06-15T08:40:02.402Z,1017.19
2017-06-15T08:41:24.883Z,1017.12
2017-06-15T08:42:46.718Z,1017.14
2017-06-15T08:44:08.549Z,1017.12
2017-06-15T08:45:30.458Z,1017.13
2017-06-15T08:46:52.079Z,1017.14
2017-06-15T08:48:14.319Z,1017.06
2017-06-15T08:49:36.804Z,1017.06
2017-06-15T08:50:58.314Z,1017.03
2017-06-15T08:52:20.164Z,1017.03
2017-06-15T08:53:42.645Z,1017.07
2017-06-15T08:55:04.808Z,1017.11
2017-06-15T08:56:27.304Z,1017.03
2017-06-15T08:57:48.861Z,1017.02
2017-06-15T08:59:11.011Z,1017.06
2017-06-15T09:00:33.210Z,1017.06
2017-06-15T09:01:56.009Z,1017.01
2017-06-15T09:03:18.502Z,1017.02
2017-06-15T09:04:40.650Z,1017.04
2017-06-15T09:06:02.801Z,1017.03
2017-06-15T09:07:24.651Z,1017.03
2017-06-15T09:08:46.811Z,1017
2017-06-15T09:10:08.968Z,1017.05
2017-06-15T09:11:30.507Z,1017.05
2017-06-15T09:12:52.815Z,1017.04
2017-06-15T09:14:14.341Z,1017
2017-06-15T09:15:36.161Z,1016.99
2017-06-15T09:16:57.990Z,1017.01
2017-06-15T09:18:20.192Z,1016.97
2017-06-15T09:19:42.380Z,1016.95
2017-06-15T09:21:04.265Z,1016.98
2017-06-15T09:22:26.149Z,1016.93
2017-06-15T09:23:48.631Z,1016.9
2017-06-15T09:25:10.211Z,1016.86
2017-06-15T09:26:32.076Z,1016.91
2017-06-15T09:27:54.032Z,1016.84
2017-06-15T09:29:16.189Z,1016.86
2017-06-15T09:30:38.696Z,1016.85
2017-06-15T09:32:00.852Z,1016.93
2017-06-15T09:33:23.160Z,1016.9
2017-06-15T09:34:45.001Z,1016.86
2017-06-15T09:36:06.541Z,1016.81
2017-06-15T09:37:28.729Z,1016.83
2017-06-15T09:38:50.900Z,1016.78
2017-06-15T09:40:13.045Z,1016.79
2017-06-15T09:41:35.315Z,1016.75
2017-06-15T09:42:57.491Z,1016.84
2017-06-15T09:44:19.667Z,1016.73
2017-06-15T09:45:41.951Z,1016.76
2017-06-15T09:47:04.097Z,1016.74
2017-06-15T09:48:26.357Z,1016.74
2017-06-15T09:49:48.286Z,1016.68
2017-06-15T09:51:10.116Z,1016.72
2017-06-15T09:52:31.961Z,1016.73
2017-06-15T09:53:54.489Z,1016.71
2017-06-15T09:55:16.646Z,1016.67
2017-06-15T09:56:38.712Z,1016.67
2017-06-15T09:58:00.881Z,1016.68
2017-06-15T09:59:22.415Z,1016.68
2017-06-15T10:00:43.942Z,1016.62
2017-06-15T10:02:05.775Z,1016.67
2017-06-15T10:03:27.631Z,1016.62
2017-06-15T10:04:49.792Z,1016.58
2017-06-15T10:06:11.944Z,1016.5
2017-06-15T10:07:34.171Z,1016.53
2017-06-15T10:08:56.070Z,1016.56
2017-06-15T10:10:17.920Z,1016.49
2017-06-15T10:11:39.440Z,1016.47
2017-06-15T10:13:01.921Z,1016.42
2017-06-15T10:14:24.072Z,1016.44
2017-06-15T10:15:46.241Z,1016.41
2017-06-15T10:17:08.393Z,1016.35
2017-06-15T10:18:30.359Z,1016.29
2017-06-15T10:19:52.200Z,1016.33
2017-06-15T10:21:14.369Z,1016.23
2017-06-15T10:22:36.526Z,1016.26
2017-06-15T10:23:58.694Z,1016.23
2017-06-15T10:25:20.840Z,1016.24
2017-06-15T10:26:42.999Z,1016.19
2017-06-15T10:28:05.137Z,1016.19
2017-06-15T10:29:27.303Z,1016.18
2017-06-15T10:30:49.522Z,1016.15
2017-06-15T10:32:11.747Z,1016.12
2017-06-15T10:33:33.587Z,1016.08
2017-06-15T10:34:55.487Z,1016.1
2017-06-15T10:36:16.996Z,1016.08
2017-06-15T10:37:39.210Z,1016.08
2017-06-15T10:39:01.049Z,1016.02
2017-06-15T10:40:22.550Z,1016.03
2017-06-15T10:41:44.276Z,1015.99
2017-06-15T10:43:06.166Z,1016
2017-06-15T10:44:28.729Z,1016.01
2017-06-15T10:45:49.939Z,1016
2017-06-15T10:47:12.070Z,1016.02
2017-06-15T10:48:33.911Z,1015.92
2017-06-15T10:49:55.790Z,1015.98
2017-06-15T10:51:17.395Z,1015.97
2017-06-15T10:52:38.931Z,1016.06
2017-06-15T10:54:01.082Z,1015.95
2017-06-15T10:55:22.931Z,1015.95
2017-06-15T10:56:45.081Z,1015.9
2017-06-15T10:58:06.611Z,1015.85
2017-06-15T10:59:28.460Z,1015.89
2017-06-15T11:00:50.367Z,1015.79
2017-06-15T11:02:12.840Z,1015.75
2017-06-15T11:03:34.049Z,1015.73
2017-06-15T11:04:55.589Z,1015.69
2017-06-15T11:06:18.079Z,1015.7
2017-06-15T11:07:39.987Z,1015.76
2017-06-15T11:09:02.679Z,1015.78
2017-06-15T11:10:24.857Z,1015.78
2017-06-15T11:11:47.039Z,1015.78
2017-06-15T11:13:09.221Z,1015.82
2017-06-15T11:14:31.060Z,1015.73
2017-06-15T11:15:53.261Z,1015.72
2017-06-15T11:17:15.728Z,1015.73
2017-06-15T11:18:37.018Z,1015.72
2017-06-15T11:19:59.171Z,1015.69
2017-06-15T11:21:21.650Z,1015.65
2017-06-15T11:22:43.819Z,1015.67
2017-06-15T11:24:06.233Z,1015.6
2017-06-15T11:25:28.404Z,1015.61
2017-06-15T11:26:50.248Z,1015.57
2017-06-15T11:28:12.755Z,1015.54
2017-06-15T11:29:35.260Z,1015.56
2017-06-15T11:30:57.752Z,1015.49
2017-06-15T11:32:19.921Z,1015.44
2017-06-15T11:33:41.773Z,1015.44
2017-06-15T11:35:03.934Z,1015.44
2017-06-15T11:36:26.094Z,1015.37
2017-06-15T11:37:47.957Z,1015.39
2017-06-15T11:39:09.479Z,1015.4
2017-06-15T11:40:31.321Z,1015.5
2017-06-15T11:41:53.182Z,1015.42
2017-06-15T11:43:14.391Z,1015.46
2017-06-15T11:44:37.179Z,1015.42
2017-06-15T11:45:59.361Z,1015.34
2017-06-15T11:47:21.223Z,1015.32
2017-06-15T11:48:43.391Z,1015.33
2017-06-15T11:50:05.957Z,1015.31
2017-06-15T11:51:27.897Z,1015.34
2017-06-15T11:52:49.801Z,1015.36
2017-06-15T11:54:11.661Z,1015.32
2017-06-15T11:55:33.491Z,1015.34
2017-06-15T11:56:55.691Z,1015.28
2017-06-15T11:58:17.855Z,1015.29
2017-06-15T11:59:40.051Z,1015.3
2017-06-15T12:01:02.540Z,1015.32
2017-06-15T12:02:24.380Z,1015.34
2017-06-15T12:03:46.705Z,1015.36
2017-06-15T12:05:08.895Z,1015.36
2017-06-15T12:06:31.389Z,1015.32
2017-06-15T12:07:53.243Z,1015.34
2017-06-15T12:09:15.523Z,1015.31
2017-06-15T12:10:37.758Z,1015.27
2017-06-15T12:12:00.234Z,1015.27
2017-06-15T12:13:22.865Z,1015.28
2017-06-15T12:14:45.364Z,1015.26
2017-06-15T12:16:07.511Z,1015.28
2017-06-15T12:17:29.351Z,1015.26
2017-06-15T12:18:51.894Z,1015.2
2017-06-15T12:20:14.052Z,1015.23
2017-06-15T12:21:36.326Z,1015.24
2017-06-15T12:22:58.205Z,1015.24
2017-06-15T12:24:20.701Z,1015.18
2017-06-15T12:25:42.553Z,1015.21
2017-06-15T12:27:05.077Z,1015.2
2017-06-15T12:28:27.610Z,1015.19
2017-06-15T12:29:50.143Z,1015.16
2017-06-15T12:31:12.681Z,1015.15
2017-06-15T12:32:34.852Z,1015.13
2017-06-15T12:33:57.341Z,1015.17
2017-06-15T12:35:20.212Z,1015.08
2017-06-15T12:36:42.737Z,1015.05
2017-06-15T12:38:05.281Z,1014.96
2017-06-15T12:39:27.873Z,1015
2017-06-15T12:40:49.092Z,1015.06
2017-06-15T12:42:11.611Z,1015.13
2017-06-15T12:43:34.191Z,1015.17
2017-06-15T12:44:56.532Z,1015.12
2017-06-15T12:46:18.691Z,1015.1
2017-06-15T12:47:40.861Z,1015.1
2017-06-15T12:49:03.375Z,1015.06
2017-06-15T12:50:26.028Z,1014.97
2017-06-15T12:51:48.226Z,1014.94
2017-06-15T12:53:10.400Z,1014.91
2017-06-15T12:54:32.302Z,1014.89
2017-06-15T12:55:54.790Z,1014.86
2017-06-15T12:57:16.633Z,1014.88
2017-06-15T12:58:38.801Z,1014.89
2017-06-15T13:00:01.284Z,1014.92
2017-06-15T13:01:23.143Z,1014.86
2017-06-15T13:02:45.331Z,1014.81
2017-06-15T13:04:07.347Z,1014.74
2017-06-15T13:05:29.937Z,1014.7
2017-06-15T13:06:52.559Z,1014.7
2017-06-15T13:08:14.752Z,1014.7
2017-06-15T13:09:37.310Z,1014.64
2017-06-15T13:10:59.591Z,1014.6
2017-06-15T13:12:21.506Z,1014.57
2017-06-15T13:13:43.691Z,1014.54
2017-06-15T13:15:06.117Z,1014.48
2017-06-15T13:16:28.602Z,1014.5
2017-06-15T13:17:51.091Z,1014.51
2017-06-15T13:19:12.945Z,1014.45
2017-06-15T13:20:34.499Z,1014.37
2017-06-15T13:21:56.703Z,1014.33
2017-06-15T13:23:18.541Z,1014.38
2017-06-15T13:24:40.812Z,1014.35
2017-06-15T13:26:02.678Z,1014.31
2017-06-15T13:27:24.531Z,1014.29
2017-06-15T13:28:46.372Z,1014.32
2017-06-15T13:30:08.683Z,1014.27
2017-06-15T13:31:31.172Z,1014.23
2017-06-15T13:32:53.352Z,1014.25
2017-06-15T13:34:15.851Z,1014.23
2017-06-15T13:35:37.400Z,1014.22
2017-06-15T13:36:59.251Z,1014.21
2017-06-15T13:38:21.511Z,1014.22
2017-06-15T13:39:43.605Z,1014.2
2017-06-15T13:41:05.835Z,1014.16
2017-06-15T13:42:28.024Z,1014.17
2017-06-15T13:43:50.199Z,1014.1
2017-06-15T13:45:12.093Z,1014.14
2017-06-15T13:46:34.282Z,1014.13
2017-06-15T13:47:56.443Z,1014.11
2017-06-15T13:49:18.631Z,1014.08
2017-06-15T13:50:41.121Z,1014.08
2017-06-15T13:52:03.074Z,1014.01
2017-06-15T13:53:25.261Z,1014.01
2017-06-15T13:54:47.422Z,1014.01
2017-06-15T13:56:09.640Z,1014.02
2017-06-15T13:57:32.143Z,1014
2017-06-15T13:58:54.402Z,1014
2017-06-15T14:00:16.603Z,1013.96
2017-06-15T14:01:38.790Z,1013.93
2017-06-15T14:03:00.991Z,1013.93
2017-06-15T14:04:22.843Z,1013.95
2017-06-15T14:05:45.032Z,1013.9
2017-06-15T14:07:06.877Z,1013.92
2017-06-15T14:08:28.462Z,1013.91
2017-06-15T14:09:50.932Z,1013.88
2017-06-15T14:11:13.182Z,1013.86
2017-06-15T14:12:34.716Z,1013.88
2017-06-15T14:13:56.266Z,1013.84
2017-06-15T14:15:18.106Z,1013.81
2017-06-15T14:16:40.046Z,1013.78
2017-06-15T14:18:02.055Z,1013.77
2017-06-15T14:19:24.590Z,1013.78
2017-06-15T14:20:46.863Z,1013.77
2017-06-15T14:22:09.371Z,1013.71
2017-06-15T14:23:32.217Z,1013.66
2017-06-15T14:24:54.776Z,1013.68
2017-06-15T14:26:17.292Z,1013.66
2017-06-15T14:27:39.826Z,1013.67
2017-06-15T14:29:02.346Z,1013.66
2017-06-15T14:30:24.573Z,1013.64
2017-06-15T14:31:46.735Z,1013.63
2017-06-15T14:33:08.946Z,1013.6
2017-06-15T14:34:31.441Z,1013.58
2017-06-15T14:35:53.369Z,1013.57
2017-06-15T14:37:15.639Z,1013.55
2017-06-15T14:38:38.132Z,1013.53
2017-06-15T14:40:00.303Z,1013.47
2017-06-15T14:41:22.501Z,1013.41
2017-06-15T14:42:44.373Z,1013.41
2017-06-15T14:44:06.578Z,1013.36
2017-06-15T14:45:28.771Z,1013.42
2017-06-15T14:46:51.079Z,1013.4
2017-06-15T14:48:13.626Z,1013.38
2017-06-15T14:49:36.162Z,1013.36
2017-06-15T14:50:58.354Z,1013.34
2017-06-15T14:52:20.274Z,1013.26
2017-06-15T14:53:41.812Z,1013.22
2017-06-15T14:55:04.081Z,1013.17
2017-06-15T14:56:26.318Z,1013.15
2017-06-15T14:57:48.869Z,1013.13
2017-06-15T14:59:11.400Z,1013.08
2017-06-15T15:00:33.605Z,1013.09
2017-06-15T15:01:55.472Z,1013.08
2017-06-15T15:03:17.984Z,1013.08
2017-06-15T15:04:40.149Z,1013.04
2017-06-15T15:06:02.649Z,1012.95
2017-06-15T15:07:24.902Z,1012.91
2017-06-15T15:08:47.232Z,1012.89
2017-06-15T15:10:08.809Z,1012.84
2017-06-15T15:11:31.011Z,1012.82
2017-06-15T15:12:53.510Z,1012.78
2017-06-15T15:14:15.701Z,1012.8
2017-06-15T15:15:38.018Z,1012.83
2017-06-15T15:17:02.711Z,1012.75
2017-06-15T15:18:25.036Z,1012.71
2017-06-15T15:19:47.540Z,1012.66
2017-06-15T15:21:10.021Z,1012.63
2017-06-15T15:22:32.316Z,1012.62
2017-06-15T15:23:54.502Z,1012.59
2017-06-15T15:25:17.076Z,1012.56
2017-06-15T15:26:38.604Z,1012.57
2017-06-15T15:28:00.792Z,1012.51
2017-06-15T15:29:22.739Z,1012.49
2017-06-15T15:30:44.294Z,1012.46
2017-06-15T15:32:06.451Z,1012.49
2017-06-15T15:33:28.960Z,1012.47
2017-06-15T15:34:51.109Z,1012.48
2017-06-15T15:36:13.611Z,1012.46
2017-06-15T15:37:35.855Z,1012.4
2017-06-15T15:38:57.729Z,1012.39
2017-06-15T15:40:19.948Z,1012.38
2017-06-15T15:41:42.479Z,1012.42
2017-06-15T15:43:04.641Z,1012.41
2017-06-15T15:44:26.952Z,1012.44
2017-06-15T15:45:49.436Z,1012.45
2017-06-15T15:47:11.602Z,1012.41
2017-06-15T15:48:34.101Z,1012.46
2017-06-15T15:49:56.631Z,1012.52
2017-06-15T15:51:18.807Z,1012.6
2017-06-15T15:52:40.951Z,1012.62
2017-06-15T15:54:03.294Z,1012.69
2017-06-15T15:55:25.450Z,1012.78
2017-06-15T15:56:47.321Z,1012.88
2017-06-15T15:58:09.590Z,1013.01
2017-06-15T15:59:31.759Z,1013.17
2017-06-15T16:00:54.406Z,1013.43
2017-06-15T16:02:16.969Z,1013.42
2017-06-15T16:03:39.088Z,1013.35
2017-06-15T16:05:03.466Z,1013.17
2017-06-15T16:06:26.123Z,1013.07
2017-06-15T16:07:48.291Z,1013.09
2017-06-15T16:09:10.461Z,1013
2017-06-15T16:10:32.662Z,1012.98
2017-06-15T16:11:54.200Z,1012.94
2017-06-15T16:13:16.447Z,1012.95
2017-06-15T16:14:38.942Z,1012.99
2017-06-15T16:16:01.481Z,1012.93
2017-06-15T16:17:23.722Z,1012.91
2017-06-15T16:18:46.255Z,1012.87
2017-06-15T16:20:08.872Z,1012.84
2017-06-15T16:21:31.099Z,1012.84
2017-06-15T16:22:53.635Z,1012.81
2017-06-15T16:24:15.819Z,1012.84
2017-06-15T16:25:37.662Z,1012.89
2017-06-15T16:26:59.849Z,1012.83
2017-06-15T16:28:21.474Z,1012.78
2017-06-15T16:29:43.787Z,1012.73
2017-06-15T16:31:06.091Z,1012.65
2017-06-15T16:32:28.571Z,1012.55
2017-06-15T16:33:50.868Z,1012.47
2017-06-15T16:35:13.372Z,1012.45
2017-06-15T16:36:35.562Z,1012.41